Time;durP1;ratioP1;P1;durP2;ratioP2;P2;SDS_P1;SDS_P2;PMS_P1;PMS_P2;Temp;Humidity;BMP_temperature;BMP_pressure;BME280_temperature;BME280_humidity;BME280_pressure;Samples;Min_cycle;Max_cycle;Signal;HPM_P1;HPM_P2
2021/12/23 00:00:55;;;;;;;;;;;20.00;50.20;;;;;;4935264;29;19914;-79
2021/12/23 00:03:21;;;;;;;;;;;20.00;50.10;;;;;;4918142;29;19911;-80
2021/12/23 00:05:46;;;;;;;;;;;20.00;50.10;;;;;;4917530;29;19914;-81
2021/12/23 00:08:12;;;;;;;;;;;20.00;50.20;;;;;;4934988;29;20295;-81
2021/12/23 00:10:38;;;;;;;;;;;20.00;50.30;;;;;;4935033;29;20287;-81
2021/12/23 00:13:03;;;;;;;;;;;20.00;50.10;;;;;;4933639;29;19914;-80
2021/12/23 00:15:39;;;;;;;;;;;19.90;50.20;;;;;;4933007;29;19915;-80
2021/12/23 00:18:41;;;;;;;;;;;20.00;50.10;;;;;;4902375;29;19918;-81
2021/12/23 00:23:49;;;;;;;;;;;20.00;50.20;;;;;;4933535;29;20323;-80
2021/12/23 00:26:14;;;;;;;;;;;20.00;50.10;;;;;;4919032;23;19922;-77
2021/12/23 00:28:40;;;;;;;;;;;20.00;50.20;;;;;;4939726;28;19914;-77
2021/12/23 00:31:06;;;;;;;;;;;20.00;50.10;;;;;;4954625;28;20338;-77
2021/12/23 00:33:34;;;;;;;;;;;20.00;50.10;;;;;;4937043;29;20334;-77
2021/12/23 00:36:00;;;;;;;;;;;20.00;50.20;;;;;;4953405;28;19921;-77
2021/12/23 00:38:30;;;;;;;;;;;20.00;50.10;;;;;;4953739;28;19917;-77
2021/12/23 00:40:58;;;;;;;;;;;20.00;50.20;;;;;;4953841;28;20454;-79
2021/12/23 00:43:24;;;;;;;;;;;20.00;50.20;;;;;;4953680;28;20351;-77
2021/12/23 00:45:50;;;;;;;;;;;20.00;50.10;;;;;;4953208;28;19914;-77
2021/12/23 00:48:16;;;;;;;;;;;20.00;50.10;;;;;;4953869;29;19920;-77
2021/12/23 00:50:42;;;;;;;;;;;20.00;50.00;;;;;;4953853;28;19942;-78
2021/12/23 00:53:10;;;;;;;;;;;20.00;49.90;;;;;;4953693;28;19946;-77
2021/12/23 00:55:36;;;;;;;;;;;20.00;50.00;;;;;;4953501;28;19933;-77
2021/12/23 00:58:02;;;;;;;;;;;20.00;50.50;;;;;;4954288;28;19957;-78
2021/12/23 01:00:28;;;;;;;;;;;20.00;49.90;;;;;;4957362;28;19911;-79
2021/12/23 01:02:54;;;;;;;;;;;20.00;49.80;;;;;;4957405;28;19917;-78
2021/12/23 01:05:21;;;;;;;;;;;20.00;49.70;;;;;;4939643;29;19915;-78
2021/12/23 01:07:47;;;;;;;;;;;20.00;49.90;;;;;;4940133;29;19961;-78
2021/12/23 01:10:13;;;;;;;;;;;20.00;49.90;;;;;;4957462;29;19914;-78
2021/12/23 01:12:49;;;;;;;;;;;20.00;49.80;;;;;;4957236;29;19917;-78
2021/12/23 01:15:27;;;;;;;;;;;20.00;49.80;;;;;;4956663;28;19911;-77
2021/12/23 01:17:56;;;;;;;;;;;20.00;49.90;;;;;;4957090;29;19911;-78
2021/12/23 01:20:28;;;;;;;;;;;20.00;49.90;;;;;;4957402;28;19917;-79
2021/12/23 01:22:55;;;;;;;;;;;20.00;50.00;;;;;;4939910;29;20398;-78
2021/12/23 01:25:21;;;;;;;;;;;20.00;50.00;;;;;;4956402;28;20264;-78
2021/12/23 01:27:46;;;;;;;;;;;20.00;50.00;;;;;;4957053;29;19910;-78
2021/12/23 01:30:13;;;;;;;;;;;20.00;50.00;;;;;;4956914;29;20287;-78
2021/12/23 01:32:40;;;;;;;;;;;20.00;49.80;;;;;;4956812;29;19915;-78
2021/12/23 01:35:06;;;;;;;;;;;20.00;50.00;;;;;;4956690;29;19910;-78
2021/12/23 01:37:31;;;;;;;;;;;20.00;49.80;;;;;;4956534;28;19917;-78
2021/12/23 01:39:57;;;;;;;;;;;20.00;50.00;;;;;;4956696;28;19964;-78
2021/12/23 01:42:22;;;;;;;;;;;20.00;50.10;;;;;;4956701;28;19914;-78
2021/12/23 01:44:48;;;;;;;;;;;20.00;50.10;;;;;;4956600;28;20335;-78
2021/12/23 01:47:14;;;;;;;;;;;20.00;50.00;;;;;;4956770;29;19914;-78
2021/12/23 01:49:39;;;;;;;;;;;20.00;50.00;;;;;;4956555;29;19918;-78
2021/12/23 01:52:05;;;;;;;;;;;20.00;49.90;;;;;;4956583;28;20364;-78
2021/12/23 01:54:31;;;;;;;;;;;20.00;49.80;;;;;;4956057;28;20279;-79
2021/12/23 01:56:57;;;;;;;;;;;20.00;49.90;;;;;;4939164;29;20339;-79
2021/12/23 01:59:23;;;;;;;;;;;20.00;49.60;;;;;;4939194;29;20367;-78
2021/12/23 02:01:49;;;;;;;;;;;20.00;49.90;;;;;;4956379;28;19917;-78
2021/12/23 02:04:14;;;;;;;;;;;20.00;49.90;;;;;;4955910;28;19917;-78
2021/12/23 02:06:40;;;;;;;;;;;20.00;49.80;;;;;;4955919;29;19910;-78
2021/12/23 02:09:06;;;;;;;;;;;20.00;49.90;;;;;;4955736;28;19942;-78
2021/12/23 02:11:31;;;;;;;;;;;20.00;49.80;;;;;;4955589;29;19945;-78
2021/12/23 02:13:57;;;;;;;;;;;19.90;49.80;;;;;;4956101;28;19917;-78
2021/12/23 02:16:23;;;;;;;;;;;19.90;49.80;;;;;;4938335;29;19936;-78
2021/12/23 02:18:48;;;;;;;;;;;20.00;49.70;;;;;;4955921;28;20001;-78
2021/12/23 02:21:14;;;;;;;;;;;20.00;49.80;;;;;;4955856;28;20119;-78
2021/12/23 02:23:40;;;;;;;;;;;20.00;49.80;;;;;;4955857;29;20268;-78
2021/12/23 02:26:05;;;;;;;;;;;20.00;49.60;;;;;;4955297;28;19965;-78
2021/12/23 02:28:31;;;;;;;;;;;20.00;49.50;;;;;;4955969;28;19921;-78
2021/12/23 02:30:57;;;;;;;;;;;20.00;49.60;;;;;;4955983;29;19916;-78
2021/12/23 02:33:23;;;;;;;;;;;20.00;49.70;;;;;;4955532;29;19942;-78
2021/12/23 02:35:49;;;;;;;;;;;20.00;49.70;;;;;;4955498;28;19911;-77
2021/12/23 02:38:15;;;;;;;;;;;20.00;49.70;;;;;;4955610;28;19921;-77
2021/12/23 02:40:42;;;;;;;;;;;20.00;49.60;;;;;;4955548;28;19910;-78
2021/12/23 02:43:07;;;;;;;;;;;20.00;49.60;;;;;;4955340;28;19917;-78
2021/12/23 02:45:33;;;;;;;;;;;20.00;49.70;;;;;;4937919;29;19910;-78
2021/12/23 02:47:58;;;;;;;;;;;20.00;49.70;;;;;;4955082;29;19921;-78
2021/12/23 02:50:24;;;;;;;;;;;20.00;49.80;;;;;;4955616;28;19914;-78
2021/12/23 02:52:50;;;;;;;;;;;20.00;49.80;;;;;;4938038;29;20268;-78
2021/12/23 02:55:18;;;;;;;;;;;20.00;49.60;;;;;;4954907;28;19922;-78
2021/12/23 02:57:45;;;;;;;;;;;19.90;49.40;;;;;;4955145;28;19910;-78
2021/12/23 03:00:10;;;;;;;;;;;20.00;49.70;;;;;;4955507;28;19917;-78
2021/12/23 03:02:37;;;;;;;;;;;19.90;49.70;;;;;;4955056;29;20283;-77
2021/12/23 03:05:03;;;;;;;;;;;19.90;49.70;;;;;;4954562;28;19910;-78
2021/12/23 03:07:28;;;;;;;;;;;20.00;49.80;;;;;;4954884;28;19910;-78
2021/12/23 03:09:54;;;;;;;;;;;20.00;49.80;;;;;;4955036;29;19918;-77
2021/12/23 03:12:20;;;;;;;;;;;20.00;49.70;;;;;;4955038;28;19915;-77
2021/12/23 03:14:45;;;;;;;;;;;20.00;49.70;;;;;;4954468;28;20393;-77
2021/12/23 03:17:11;;;;;;;;;;;19.90;49.60;;;;;;4954748;28;19910;-78
2021/12/23 03:19:37;;;;;;;;;;;19.90;49.60;;;;;;4954652;29;19910;-78
2021/12/23 03:22:03;;;;;;;;;;;19.90;49.50;;;;;;4954323;28;19996;-77
2021/12/23 03:24:28;;;;;;;;;;;19.90;49.60;;;;;;4954670;29;19910;-77
2021/12/23 03:26:54;;;;;;;;;;;19.90;49.60;;;;;;4954316;28;19969;-78
2021/12/23 03:29:20;;;;;;;;;;;19.90;49.70;;;;;;4937412;29;19925;-78
2021/12/23 03:31:45;;;;;;;;;;;19.90;49.70;;;;;;4954742;28;20294;-78
2021/12/23 03:34:11;;;;;;;;;;;19.90;49.60;;;;;;4954122;29;19921;-78
2021/12/23 03:36:36;;;;;;;;;;;19.90;49.40;;;;;;4937113;29;19910;-78
2021/12/23 03:39:04;;;;;;;;;;;19.90;49.50;;;;;;4954295;28;19911;-78
2021/12/23 03:41:29;;;;;;;;;;;20.00;49.60;;;;;;4954503;28;19921;-77
2021/12/23 03:43:55;;;;;;;;;;;19.90;49.60;;;;;;4954484;28;19910;-78
2021/12/23 03:46:21;;;;;;;;;;;19.90;49.70;;;;;;4953980;28;20504;-78
2021/12/23 03:48:46;;;;;;;;;;;19.90;49.70;;;;;;4954098;29;19922;-78
2021/12/23 03:51:13;;;;;;;;;;;19.90;49.30;;;;;;4954371;28;19910;-79
2021/12/23 03:53:38;;;;;;;;;;;19.90;49.60;;;;;;4954289;28;19918;-78
2021/12/23 03:56:04;;;;;;;;;;;19.90;49.60;;;;;;4936777;29;19914;-78
2021/12/23 03:58:29;;;;;;;;;;;19.90;49.60;;;;;;4954379;29;19914;-78
2021/12/23 04:00:55;;;;;;;;;;;20.00;49.40;;;;;;4954118;28;19910;-78
2021/12/23 04:03:21;;;;;;;;;;;20.00;49.30;;;;;;4936790;29;20283;-78
2021/12/23 04:05:47;;;;;;;;;;;20.00;49.50;;;;;;4953875;28;19916;-78
2021/12/23 04:08:12;;;;;;;;;;;20.00;49.30;;;;;;4953943;29;19918;-78
2021/12/23 04:10:38;;;;;;;;;;;20.00;49.50;;;;;;4954667;28;19911;-78
2021/12/23 04:13:04;;;;;;;;;;;19.90;49.40;;;;;;4954310;29;20018;-78
2021/12/23 04:15:30;;;;;;;;;;;19.90;49.40;;;;;;4953618;29;20013;-78
2021/12/23 04:17:56;;;;;;;;;;;19.90;49.40;;;;;;4936726;29;20383;-78
2021/12/23 04:20:23;;;;;;;;;;;19.90;49.40;;;;;;4937107;29;20347;-78
2021/12/23 04:22:51;;;;;;;;;;;19.90;49.50;;;;;;4953814;29;20005;-78
2021/12/23 04:25:17;;;;;;;;;;;19.90;49.40;;;;;;4953459;28;20357;-77
2021/12/23 04:27:44;;;;;;;;;;;19.90;49.50;;;;;;4936641;29;19915;-78
2021/12/23 04:30:10;;;;;;;;;;;19.90;49.50;;;;;;4953976;29;19918;-78
2021/12/23 04:32:36;;;;;;;;;;;19.90;49.50;;;;;;4953969;28;19917;-78
2021/12/23 04:35:02;;;;;;;;;;;19.90;49.50;;;;;;4957277;29;19910;-78
2021/12/23 04:37:27;;;;;;;;;;;19.90;49.60;;;;;;4958053;28;19906;-78
2021/12/23 04:39:53;;;;;;;;;;;19.90;49.50;;;;;;4940307;29;19917;-77
2021/12/23 04:42:19;;;;;;;;;;;19.90;49.50;;;;;;4940594;29;20363;-78
2021/12/23 04:44:44;;;;;;;;;;;19.90;49.40;;;;;;4940344;29;20286;-78
2021/12/23 04:47:10;;;;;;;;;;;19.90;49.30;;;;;;4957350;28;19910;-78
2021/12/23 04:49:35;;;;;;;;;;;19.90;49.50;;;;;;4957229;29;19926;-78
2021/12/23 04:52:01;;;;;;;;;;;19.90;49.40;;;;;;4957573;29;20057;-78
2021/12/23 04:54:27;;;;;;;;;;;19.90;49.50;;;;;;4957152;28;19910;-78
2021/12/23 04:56:52;;;;;;;;;;;19.90;49.50;;;;;;4940149;29;20006;-78
2021/12/23 04:59:18;;;;;;;;;;;19.90;49.60;;;;;;4957288;29;20279;-78
2021/12/23 05:01:44;;;;;;;;;;;19.90;49.50;;;;;;4957282;29;19910;-78
2021/12/23 05:04:09;;;;;;;;;;;19.90;49.50;;;;;;4957258;29;19914;-78
2021/12/23 05:06:35;;;;;;;;;;;19.90;49.50;;;;;;4940068;29;19910;-78
2021/12/23 05:09:01;;;;;;;;;;;19.90;49.60;;;;;;4957021;29;19918;-78
2021/12/23 05:11:26;;;;;;;;;;;19.80;49.50;;;;;;4957252;28;19910;-78
2021/12/23 05:13:52;;;;;;;;;;;19.90;49.60;;;;;;4957474;28;19978;-78
2021/12/23 05:16:18;;;;;;;;;;;19.90;49.60;;;;;;4957021;28;20395;-78
2021/12/23 05:18:44;;;;;;;;;;;19.80;49.60;;;;;;4956863;28;19910;-78
2021/12/23 05:21:10;;;;;;;;;;;19.90;49.60;;;;;;4956913;28;19937;-78
2021/12/23 05:23:36;;;;;;;;;;;19.80;49.50;;;;;;4956897;29;20346;-78
2021/12/23 05:26:05;;;;;;;;;;;19.90;49.50;;;;;;4956482;28;19961;-79
2021/12/23 05:28:31;;;;;;;;;;;19.80;49.40;;;;;;4939893;29;19919;-78
2021/12/23 05:30:57;;;;;;;;;;;19.90;49.40;;;;;;4956840;28;20363;-78
2021/12/23 05:33:22;;;;;;;;;;;19.90;49.40;;;;;;4956725;28;19918;-78
2021/12/23 05:35:48;;;;;;;;;;;19.90;49.40;;;;;;4956447;28;20283;-78
2021/12/23 05:38:13;;;;;;;;;;;19.90;49.40;;;;;;4956673;29;19910;-77
2021/12/23 05:40:39;;;;;;;;;;;19.90;49.40;;;;;;4956552;28;20259;-77
2021/12/23 05:43:05;;;;;;;;;;;19.90;49.50;;;;;;4956572;29;20375;-78
2021/12/23 05:45:31;;;;;;;;;;;19.80;49.40;;;;;;4955917;28;20350;-78
2021/12/23 05:47:56;;;;;;;;;;;19.80;49.50;;;;;;4956427;28;19934;-78
2021/12/23 05:50:23;;;;;;;;;;;19.80;49.40;;;;;;4956490;28;20362;-77
2021/12/23 05:52:50;;;;;;;;;;;19.80;49.40;;;;;;4956484;28;19917;-77
2021/12/23 05:55:16;;;;;;;;;;;19.80;50.00;;;;;;4956000;29;19918;-77
2021/12/23 05:57:42;;;;;;;;;;;19.80;49.40;;;;;;4956385;28;19949;-78
2021/12/23 06:00:10;;;;;;;;;;;19.80;49.40;;;;;;4956067;28;19953;-77
2021/12/23 06:02:36;;;;;;;;;;;19.70;49.30;;;;;;4956190;29;19910;-77
2021/12/23 06:05:03;;;;;;;;;;;19.70;49.50;;;;;;4955826;29;20214;-78
2021/12/23 06:07:28;;;;;;;;;;;19.70;49.50;;;;;;4956097;28;20378;-78
2021/12/23 06:09:54;;;;;;;;;;;19.70;49.30;;;;;;4956275;28;19918;-77
2021/12/23 06:12:19;;;;;;;;;;;19.70;49.40;;;;;;4956152;29;20441;-78
2021/12/23 06:14:45;;;;;;;;;;;19.70;49.30;;;;;;4938495;29;19942;-78
2021/12/23 06:17:11;;;;;;;;;;;19.70;49.40;;;;;;4955819;28;19911;-78
2021/12/23 06:19:37;;;;;;;;;;;19.70;49.40;;;;;;4955890;29;19910;-77
2021/12/23 06:22:02;;;;;;;;;;;19.70;49.50;;;;;;4955881;29;19910;-78
2021/12/23 06:24:28;;;;;;;;;;;19.70;49.50;;;;;;4938333;29;19982;-78
2021/12/23 06:26:54;;;;;;;;;;;19.70;49.50;;;;;;4967788;23;19998;-79
2021/12/23 06:29:19;;;;;;;;;;;19.70;49.50;;;;;;4934348;29;19957;-78
2021/12/23 06:31:45;;;;;;;;;;;19.70;49.30;;;;;;4955392;28;19992;-79
2021/12/23 06:34:11;;;;;;;;;;;19.70;49.50;;;;;;4955613;29;19910;-79
2021/12/23 06:36:36;;;;;;;;;;;19.70;49.50;;;;;;4955574;29;19985;-79
2021/12/23 06:39:04;;;;;;;;;;;19.70;49.40;;;;;;4938499;29;19910;-79
2021/12/23 06:41:29;;;;;;;;;;;19.70;49.50;;;;;;4922564;29;20394;-78
2021/12/23 06:43:55;;;;;;;;;;;19.70;49.90;;;;;;4922606;29;19911;-78
2021/12/23 06:46:21;;;;;;;;;;;19.70;49.50;;;;;;4938130;29;19914;-79
2021/12/23 06:48:46;;;;;;;;;;;19.60;49.40;;;;;;4955375;28;19961;-78
2021/12/23 06:51:12;;;;;;;;;;;19.60;49.40;;;;;;4938144;29;20411;-79
2021/12/23 06:53:38;;;;;;;;;;;19.60;49.50;;;;;;4938482;29;19965;-78
2021/12/23 06:56:03;;;;;;;;;;;19.60;50.00;;;;;;4954639;28;19914;-78
2021/12/23 06:58:31;;;;;;;;;;;19.60;49.50;;;;;;4955242;29;20272;-78
2021/12/23 07:00:57;;;;;;;;;;;19.60;49.30;;;;;;4922233;29;19914;-79
2021/12/23 07:03:31;;;;;;;;;;;19.70;49.40;;;;;;4955259;29;19916;-79
2021/12/23 07:06:04;;;;;;;;;;;19.70;49.40;;;;;;4937798;29;19918;-79
2021/12/23 07:08:31;;;;;;;;;;;19.70;49.30;;;;;;4938025;29;20291;-79
2021/12/23 07:10:56;;;;;;;;;;;19.70;49.30;;;;;;4937900;29;20430;-80
2021/12/23 07:13:22;;;;;;;;;;;19.60;49.20;;;;;;4954869;29;19914;-79
2021/12/23 07:15:48;;;;;;;;;;;19.70;49.30;;;;;;4937433;29;19961;-80
2021/12/23 07:18:13;;;;;;;;;;;19.70;49.30;;;;;;4937669;29;19958;-80
2021/12/23 07:20:39;;;;;;;;;;;19.60;49.20;;;;;;4921744;29;20307;-80
2021/12/23 07:23:05;;;;;;;;;;;19.60;49.30;;;;;;4937622;29;19910;-80
2021/12/23 07:25:31;;;;;;;;;;;19.60;49.40;;;;;;4954058;28;20402;-80
2021/12/23 07:27:56;;;;;;;;;;;19.60;49.40;;;;;;4937589;29;19917;-79
2021/12/23 07:30:22;;;;;;;;;;;19.60;49.30;;;;;;4937296;29;19915;-78
2021/12/23 07:32:49;;;;;;;;;;;19.60;49.40;;;;;;4954649;29;19910;-79
2021/12/23 07:35:15;;;;;;;;;;;19.60;49.40;;;;;;4936689;29;20434;-79
2021/12/23 07:37:42;;;;;;;;;;;19.60;49.50;;;;;;4921425;29;20372;-79
2021/12/23 07:40:08;;;;;;;;;;;19.60;49.40;;;;;;4954117;28;19910;-79
2021/12/23 07:42:34;;;;;;;;;;;19.60;49.40;;;;;;4937066;29;20419;-79
2021/12/23 07:45:01;;;;;;;;;;;19.60;49.50;;;;;;4953887;29;19910;-79
2021/12/23 07:47:27;;;;;;;;;;;19.60;49.40;;;;;;4954240;29;20446;-79
2021/12/23 07:49:52;;;;;;;;;;;19.60;49.50;;;;;;4954031;29;20083;-79
2021/12/23 07:52:20;;;;;;;;;;;19.60;49.50;;;;;;4954138;29;19918;-79
2021/12/23 07:54:46;;;;;;;;;;;19.50;49.40;;;;;;4954200;28;19961;-79
2021/12/23 07:57:11;;;;;;;;;;;19.60;49.50;;;;;;4954060;28;20395;-79
2021/12/23 07:59:37;;;;;;;;;;;19.50;49.50;;;;;;4953974;28;19910;-79
2021/12/23 08:02:03;;;;;;;;;;;19.50;49.40;;;;;;4936967;29;19910;-79
2021/12/23 08:04:30;;;;;;;;;;;19.50;49.50;;;;;;4936814;29;19918;-79
2021/12/23 08:06:57;;;;;;;;;;;19.50;49.50;;;;;;4953670;28;20012;-79
2021/12/23 08:09:23;;;;;;;;;;;19.50;49.50;;;;;;4953188;28;20367;-80
2021/12/23 08:11:49;;;;;;;;;;;19.50;49.50;;;;;;4936657;29;19914;-79
2021/12/23 08:14:15;;;;;;;;;;;19.50;49.50;;;;;;4936617;29;19914;-79
2021/12/23 08:16:41;;;;;;;;;;;19.50;49.50;;;;;;4905445;29;19910;-80
2021/12/23 08:19:07;;;;;;;;;;;19.50;49.50;;;;;;4954146;29;20370;-79
2021/12/23 08:21:33;;;;;;;;;;;19.50;49.50;;;;;;4937061;29;19910;-79
2021/12/23 08:23:58;;;;;;;;;;;19.50;49.50;;;;;;4936599;29;19921;-79
2021/12/23 08:26:28;;;;;;;;;;;19.50;49.40;;;;;;4936204;29;19914;-79
2021/12/23 08:28:54;;;;;;;;;;;19.50;49.40;;;;;;4953715;29;20386;-79
2021/12/23 08:31:21;;;;;;;;;;;19.50;49.40;;;;;;4937022;29;20391;-79
2021/12/23 08:33:47;;;;;;;;;;;19.50;49.40;;;;;;4936441;29;19918;-80
2021/12/23 08:36:13;;;;;;;;;;;19.50;49.40;;;;;;4936355;29;20359;-79
2021/12/23 08:38:42;;;;;;;;;;;19.50;49.30;;;;;;4936591;29;20012;-80
2021/12/23 08:41:08;;;;;;;;;;;19.50;49.40;;;;;;4953606;29;20001;-80
2021/12/23 08:43:34;;;;;;;;;;;19.50;49.30;;;;;;4953896;29;19989;-79
2021/12/23 08:45:59;;;;;;;;;;;19.50;49.40;;;;;;4935919;29;19910;-80
2021/12/23 08:48:25;;;;;;;;;;;19.50;49.30;;;;;;4953444;29;19910;-79
2021/12/23 08:50:51;;;;;;;;;;;19.50;49.30;;;;;;4936743;29;19916;-79
2021/12/23 08:53:17;;;;;;;;;;;19.50;49.40;;;;;;4920711;29;19914;-79
2021/12/23 08:55:42;;;;;;;;;;;19.50;49.50;;;;;;4953867;29;19953;-79
2021/12/23 08:58:08;;;;;;;;;;;19.50;49.40;;;;;;4953739;29;19917;-80
2021/12/23 09:00:35;;;;;;;;;;;19.40;49.50;;;;;;4953444;28;20331;-79
2021/12/23 09:03:02;;;;;;;;;;;19.50;49.50;;;;;;4953298;28;20000;-79
2021/12/23 09:05:28;;;;;;;;;;;19.40;49.50;;;;;;4953078;28;19915;-79
2021/12/23 09:07:53;;;;;;;;;;;19.40;49.50;;;;;;4953240;28;19964;-79
2021/12/23 09:10:20;;;;;;;;;;;19.40;49.50;;;;;;4953472;29;20283;-79
2021/12/23 09:12:46;;;;;;;;;;;19.40;49.40;;;;;;4953387;29;19966;-79
2021/12/23 09:15:12;;;;;;;;;;;19.40;49.50;;;;;;4952936;29;19911;-80
2021/12/23 09:17:38;;;;;;;;;;;19.40;49.50;;;;;;4953643;29;20049;-80
2021/12/23 09:20:05;;;;;;;;;;;19.40;49.50;;;;;;4938649;29;19910;-80
2021/12/23 09:22:30;;;;;;;;;;;19.40;49.50;;;;;;4957013;28;19910;-80
2021/12/23 09:24:58;;;;;;;;;;;19.40;49.50;;;;;;4923707;29;20402;-80
2021/12/23 09:27:44;;;;;;;;;;;19.40;49.50;;;;;;4923872;29;19995;-80
2021/12/23 09:33:00;;;;;;;;;;;19.40;49.50;;;;;;4956629;29;19949;-80
2021/12/23 09:35:28;;;;;;;;;;;19.40;49.50;;;;;;4956524;29;19913;-79
2021/12/23 09:37:53;;;;;;;;;;;19.40;49.50;;;;;;4956886;29;19910;-79
2021/12/23 09:40:19;;;;;;;;;;;19.40;49.50;;;;;;4956674;28;19910;-79
2021/12/23 09:42:46;;;;;;;;;;;19.40;49.40;;;;;;4939647;29;19933;-80
2021/12/23 09:45:17;;;;;;;;;;;19.40;49.50;;;;;;4939274;29;19911;-80
2021/12/23 09:47:43;;;;;;;;;;;19.40;49.50;;;;;;4939423;29;19953;-79
2021/12/23 09:50:10;;;;;;;;;;;19.40;49.40;;;;;;4939254;29;19964;-79
2021/12/23 09:52:40;;;;;;;;;;;19.40;49.50;;;;;;4923424;29;20172;-79
2021/12/23 09:55:06;;;;;;;;;;;19.40;49.50;;;;;;4956397;28;19920;-80
2021/12/23 09:57:32;;;;;;;;;;;19.40;49.40;;;;;;4956875;29;19910;-79
2021/12/23 09:59:58;;;;;;;;;;;19.40;49.50;;;;;;4956674;29;20004;-79
2021/12/23 10:02:23;;;;;;;;;;;19.40;49.40;;;;;;4956553;28;19969;-79
2021/12/23 10:04:49;;;;;;;;;;;19.40;49.40;;;;;;4939230;29;19914;-79
2021/12/23 10:07:15;;;;;;;;;;;19.40;49.40;;;;;;4956467;28;19910;-79
2021/12/23 10:10:00;;;;;;;;;;;19.40;49.30;;;;;;4939356;29;19937;-78
2021/12/23 10:13:07;;;;;;;;;;;19.40;49.20;;;;;;4956309;29;20379;-79
2021/12/23 10:37:23;;;;;;;;;;;19.40;49.50;;;;;;4938739;29;19914;-79
2021/12/23 10:39:49;;;;;;;;;;;19.40;49.50;;;;;;4955480;29;19911;-79
2021/12/23 10:42:16;;;;;;;;;;;19.40;49.50;;;;;;4938518;29;19933;-79
2021/12/23 10:44:50;;;;;;;;;;;19.40;49.50;;;;;;4938092;29;19910;-79
2021/12/23 10:47:37;;;;;;;;;;;19.40;49.50;;;;;;4938386;29;19910;-80
2021/12/23 10:50:14;;;;;;;;;;;19.40;49.40;;;;;;4955195;28;19918;-79
2021/12/23 10:52:50;;;;;;;;;;;19.40;49.50;;;;;;4955914;29;19910;-79
2021/12/23 10:58:08;;;;;;;;;;;19.40;49.50;;;;;;4961750;28;19911;-79
2021/12/23 11:00:35;;;;;;;;;;;19.40;49.50;;;;;;4945465;29;19910;-79
2021/12/23 11:03:02;;;;;;;;;;;19.40;49.50;;;;;;4941237;29;19910;-79
2021/12/23 11:05:36;;;;;;;;;;;19.40;49.50;;;;;;4939613;29;19922;-78
2021/12/23 11:08:19;;;;;;;;;;;19.40;49.50;;;;;;4957068;29;19918;-79
2021/12/23 11:38:09;;;;;;;;;;;19.40;49.50;;;;;;4954634;29;19910;-79
2021/12/23 11:45:45;;;;;;;;;;;19.50;49.40;;;;;;4937066;29;19911;-79
2021/12/23 11:48:11;;;;;;;;;;;19.50;49.50;;;;;;4954436;28;19910;-79
2021/12/23 11:50:53;;;;;;;;;;;19.40;49.30;;;;;;4954572;28;19918;-79
2021/12/23 11:53:19;;;;;;;;;;;19.50;49.30;;;;;;4921568;29;20355;-79
2021/12/23 11:55:45;;;;;;;;;;;19.50;49.40;;;;;;4954204;29;19932;-79
2021/12/23 11:58:11;;;;;;;;;;;19.40;49.30;;;;;;4937325;29;20386;-79
2021/12/23 12:00:43;;;;;;;;;;;19.50;49.40;;;;;;4937273;29;19922;-79
2021/12/23 12:03:10;;;;;;;;;;;19.40;49.40;;;;;;4955162;29;19953;-79
2021/12/23 12:05:36;;;;;;;;;;;19.40;49.40;;;;;;4954432;28;19911;-79
2021/12/23 12:08:07;;;;;;;;;;;19.40;49.50;;;;;;4938612;29;19915;-79
2021/12/23 12:10:34;;;;;;;;;;;19.50;49.40;;;;;;4955356;29;19918;-79
2021/12/23 12:13:01;;;;;;;;;;;19.40;49.40;;;;;;4955012;29;20005;-79
2021/12/23 12:15:53;;;;;;;;;;;19.40;49.40;;;;;;4953992;28;20290;-79
2021/12/23 12:18:22;;;;;;;;;;;19.40;49.40;;;;;;4952276;29;19918;-80
2021/12/23 12:20:53;;;;;;;;;;;19.50;49.50;;;;;;4954643;29;19910;-79
2021/12/23 12:23:29;;;;;;;;;;;19.50;49.50;;;;;;4937439;29;19910;-79
2021/12/23 12:25:59;;;;;;;;;;;19.40;49.50;;;;;;4951277;23;19938;-77
2021/12/23 12:28:27;;;;;;;;;;;19.40;49.40;;;;;;4953653;28;20343;-77
2021/12/23 12:30:55;;;;;;;;;;;19.40;49.50;;;;;;4937628;29;19910;-77
2021/12/23 12:33:24;;;;;;;;;;;19.40;49.50;;;;;;4918996;29;20018;-78
2021/12/23 12:35:50;;;;;;;;;;;19.40;49.40;;;;;;4930862;29;19966;-77
2021/12/23 12:38:21;;;;;;;;;;;19.40;49.50;;;;;;4915620;29;19915;-77
2021/12/23 12:40:59;;;;;;;;;;;19.40;49.50;;;;;;4915397;29;20009;-77
2021/12/23 12:43:47;;;;;;;;;;;19.40;49.50;;;;;;4931282;29;19915;-78
2021/12/23 12:46:15;;;;;;;;;;;19.40;49.50;;;;;;4931038;29;19910;-77
2021/12/23 12:48:56;;;;;;;;;;;19.40;49.50;;;;;;4932435;29;20017;-77
2021/12/23 12:51:27;;;;;;;;;;;19.40;49.50;;;;;;4932349;29;19982;-78
2021/12/23 12:53:55;;;;;;;;;;;19.40;49.50;;;;;;4933068;29;19921;-77
2021/12/23 12:56:27;;;;;;;;;;;19.40;49.50;;;;;;4918889;29;19961;-78
2021/12/23 12:58:54;;;;;;;;;;;19.40;49.50;;;;;;4919061;29;20423;-78
2021/12/23 13:01:29;;;;;;;;;;;19.40;50.00;;;;;;4936143;29;20005;-77
2021/12/23 13:03:56;;;;;;;;;;;19.40;49.50;;;;;;4919034;29;19918;-78
2021/12/23 13:06:21;;;;;;;;;;;19.40;49.50;;;;;;4935764;29;19922;-78
2021/12/23 13:09:11;;;;;;;;;;;19.50;49.50;;;;;;4928825;29;19914;-77
2021/12/23 13:11:59;;;;;;;;;;;19.40;49.40;;;;;;4934850;29;19910;-77
2021/12/23 13:15:16;;;;;;;;;;;19.50;49.50;;;;;;4921229;29;19910;-77
2021/12/23 13:18:18;;;;;;;;;;;19.40;49.40;;;;;;4925881;29;19911;-78
2021/12/23 13:20:49;;;;;;;;;;;19.50;49.50;;;;;;4934664;29;19926;-77
2021/12/23 13:23:17;;;;;;;;;;;19.50;49.40;;;;;;4936246;29;20067;-77
2021/12/23 13:25:50;;;;;;;;;;;19.50;49.40;;;;;;4935503;29;19910;-77
2021/12/23 13:28:20;;;;;;;;;;;19.50;49.40;;;;;;4935663;29;19914;-77
2021/12/23 13:30:46;;;;;;;;;;;19.50;49.30;;;;;;4918501;29;19915;-78
2021/12/23 13:33:12;;;;;;;;;;;19.50;49.40;;;;;;4918605;29;19917;-78
2021/12/23 13:35:38;;;;;;;;;;;19.50;49.40;;;;;;4934144;29;20243;-78
2021/12/23 13:38:04;;;;;;;;;;;19.50;49.40;;;;;;4934170;29;19954;-77
2021/12/23 13:40:32;;;;;;;;;;;19.50;49.40;;;;;;4935601;29;19918;-78
2021/12/23 13:42:57;;;;;;;;;;;19.40;49.40;;;;;;4934544;29;19910;-77
2021/12/23 13:45:23;;;;;;;;;;;19.50;49.50;;;;;;4918274;29;19965;-78
2021/12/23 13:47:53;;;;;;;;;;;19.50;50.00;;;;;;4918329;29;19910;-77
2021/12/23 13:50:20;;;;;;;;;;;19.50;49.40;;;;;;4918017;29;20295;-77
2021/12/23 13:52:48;;;;;;;;;;;19.40;49.50;;;;;;4918135;29;20125;-77
2021/12/23 13:55:16;;;;;;;;;;;19.40;49.40;;;;;;4933746;29;19980;-77
2021/12/23 13:57:46;;;;;;;;;;;19.50;49.50;;;;;;4933791;29;20291;-77
2021/12/23 14:00:14;;;;;;;;;;;19.40;49.50;;;;;;4918162;29;19950;-77
2021/12/23 14:02:42;;;;;;;;;;;19.40;49.40;;;;;;4934046;29;19919;-77
2021/12/23 14:05:08;;;;;;;;;;;19.40;49.50;;;;;;4934925;29;19911;-77
2021/12/23 14:07:35;;;;;;;;;;;19.40;49.40;;;;;;4934940;29;19950;-77
2021/12/23 14:10:01;;;;;;;;;;;19.40;49.50;;;;;;4934972;29;19914;-77
2021/12/23 14:12:47;;;;;;;;;;;19.40;49.50;;;;;;4918693;29;19942;-77
2021/12/23 14:15:21;;;;;;;;;;;19.40;49.40;;;;;;4918219;29;19914;-78
2021/12/23 14:23:38;;;;;;;;;;;19.40;49.50;;;;;;4918507;29;19910;-77
2021/12/23 14:26:05;;;;;;;;;;;19.40;49.40;;;;;;4935141;29;19977;-77
2021/12/23 14:28:36;;;;;;;;;;;19.40;49.40;;;;;;4935355;29;19936;-77
2021/12/23 14:31:01;;;;;;;;;;;19.40;49.40;;;;;;4935867;29;19966;-77
2021/12/23 14:33:29;;;;;;;;;;;19.40;49.40;;;;;;4902291;29;19910;-77
2021/12/23 14:35:57;;;;;;;;;;;19.40;49.50;;;;;;4901752;29;19929;-77
2021/12/23 14:38:24;;;;;;;;;;;19.40;49.50;;;;;;4933897;29;19973;-77
2021/12/23 14:40:56;;;;;;;;;;;19.40;49.40;;;;;;4917617;29;20292;-77
2021/12/23 14:43:22;;;;;;;;;;;19.40;49.40;;;;;;4918149;29;19998;-77
2021/12/23 14:45:57;;;;;;;;;;;19.40;49.40;;;;;;4934197;29;19974;-77
2021/12/23 14:48:24;;;;;;;;;;;19.40;49.40;;;;;;4934685;29;19958;-77
2021/12/23 14:50:52;;;;;;;;;;;19.40;49.40;;;;;;4933270;29;19914;-77
2021/12/23 14:53:19;;;;;;;;;;;19.40;49.30;;;;;;4917228;29;20368;-77
2021/12/23 14:55:52;;;;;;;;;;;19.50;49.30;;;;;;4933969;29;19973;-77
2021/12/23 14:58:18;;;;;;;;;;;19.50;49.40;;;;;;4934499;29;19915;-78
2021/12/23 15:00:45;;;;;;;;;;;19.40;49.30;;;;;;4933251;29;19911;-77
2021/12/23 15:03:18;;;;;;;;;;;19.50;49.20;;;;;;4934304;29;19918;-78
2021/12/23 15:05:44;;;;;;;;;;;19.50;49.30;;;;;;4916875;29;19911;-77
2021/12/23 15:08:21;;;;;;;;;;;19.50;49.20;;;;;;4934206;29;19911;-77
2021/12/23 15:10:52;;;;;;;;;;;19.50;49.30;;;;;;4932545;29;20383;-78
2021/12/23 15:13:20;;;;;;;;;;;19.50;49.30;;;;;;4934086;29;19910;-78
2021/12/23 15:15:47;;;;;;;;;;;19.40;49.30;;;;;;4933457;29;20021;-77
2021/12/23 15:18:25;;;;;;;;;;;19.50;49.40;;;;;;4933386;29;19911;-77
2021/12/23 15:20:51;;;;;;;;;;;19.50;49.30;;;;;;4932547;29;19914;-78
2021/12/23 15:23:37;;;;;;;;;;;19.50;49.40;;;;;;4933868;29;19926;-78
2021/12/23 15:26:03;;;;;;;;;;;19.40;49.40;;;;;;4933176;29;20347;-78
2021/12/23 15:28:29;;;;;;;;;;;19.50;49.50;;;;;;4933716;29;19910;-78